createdAt,value
2017-08-23T00:01:48.755Z,22.20
2017-08-23T00:04:16.233Z,22.30
2017-08-23T00:06:43.741Z,22.10
2017-08-23T00:09:11.236Z,22.20
2017-08-23T00:11:38.727Z,22.30
2017-08-23T00:14:06.232Z,22.20
2017-08-23T00:16:33.721Z,22.30
2017-08-23T00:19:01.210Z,22.60
2017-08-23T00:21:28.711Z,22.40
2017-08-23T00:23:56.210Z,22.40
2017-08-23T00:26:23.685Z,22.50
2017-08-23T00:28:51.192Z,22.40
2017-08-23T00:31:18.680Z,22.50
2017-08-23T00:33:46.157Z,22.10
2017-08-23T00:36:13.672Z,22.20
2017-08-23T00:38:41.159Z,22.40
2017-08-23T00:41:08.634Z,21.90
2017-08-23T00:43:36.142Z,21.90
2017-08-23T00:46:03.627Z,21.90
2017-08-23T00:48:31.115Z,21.70
2017-08-23T00:50:58.626Z,21.60
2017-08-23T00:53:26.099Z,21.60
2017-08-23T00:55:53.579Z,21.40
2017-08-23T00:58:21.097Z,21.30
2017-08-23T01:00:48.592Z,21.30
2017-08-23T01:03:16.075Z,21.30
2017-08-23T01:05:43.589Z,21.70
2017-08-23T01:08:11.065Z,21.70
2017-08-23T01:10:38.559Z,21.60
2017-08-23T01:13:06.077Z,21.50
2017-08-23T01:15:33.579Z,21.30
2017-08-23T01:20:37.877Z,21.50
2017-08-23T01:23:05.366Z,21.40
2017-08-23T01:25:32.839Z,21.40
2017-08-23T01:28:00.347Z,21.40
2017-08-23T01:30:27.825Z,21.30
2017-08-23T01:32:55.307Z,21.30
2017-08-23T01:35:22.814Z,21.80
2017-08-23T01:37:50.293Z,21.90
2017-08-23T01:40:17.765Z,21.90
2017-08-23T01:42:45.272Z,22.00
2017-08-23T01:45:12.757Z,21.80
2017-08-23T01:47:40.247Z,21.60
2017-08-23T01:50:07.759Z,21.70
2017-08-23T01:52:35.242Z,21.50
2017-08-23T01:55:02.725Z,21.40
2017-08-23T01:57:30.236Z,21.40
2017-08-23T01:59:57.718Z,21.80
2017-08-23T02:02:25.192Z,21.60
2017-08-23T02:04:52.735Z,21.50
2017-08-23T02:07:20.224Z,21.40
2017-08-23T02:09:47.697Z,21.50
2017-08-23T02:12:15.197Z,21.60
2017-08-23T02:14:42.699Z,21.40
2017-08-23T02:17:10.177Z,21.20
2017-08-23T02:19:37.684Z,21.20
2017-08-23T02:22:05.166Z,21.00
2017-08-23T02:24:32.657Z,21.00
2017-08-23T02:27:00.167Z,21.10
2017-08-23T02:29:27.642Z,21.20
2017-08-23T02:31:55.118Z,21.50
2017-08-23T02:34:22.623Z,21.50
2017-08-23T02:36:50.261Z,21.50
2017-08-23T02:39:17.740Z,21.20
2017-08-23T02:41:45.246Z,21.30
2017-08-23T02:44:12.744Z,21.10
2017-08-23T02:46:40.243Z,21.20
2017-08-23T02:49:07.755Z,20.90
2017-08-23T02:51:35.238Z,20.90
2017-08-23T02:54:02.719Z,20.60
2017-08-23T02:56:30.224Z,20.90
2017-08-23T02:58:57.704Z,21.00
2017-08-23T03:01:25.193Z,21.10
2017-08-23T03:03:52.693Z,21.40
2017-08-23T03:06:20.174Z,21.70
2017-08-23T03:08:47.664Z,21.10
2017-08-23T03:11:15.165Z,21.00
2017-08-23T03:13:42.648Z,20.70
2017-08-23T03:16:10.155Z,20.20
2017-08-23T03:18:37.658Z,20.00
2017-08-23T03:21:05.152Z,20.00
2017-08-23T03:23:32.630Z,19.90
2017-08-23T03:26:00.132Z,19.90
2017-08-23T03:28:27.610Z,20.10
2017-08-23T03:30:55.092Z,19.90
2017-08-23T03:33:22.610Z,19.80
2017-08-23T03:35:50.085Z,19.90
2017-08-23T03:38:17.564Z,20.00
2017-08-23T03:40:45.067Z,20.40
2017-08-23T03:43:12.559Z,20.40
2017-08-23T03:45:40.055Z,20.40
2017-08-23T03:48:07.562Z,20.40
2017-08-23T03:50:35.058Z,20.50
2017-08-23T03:53:02.542Z,20.40
2017-08-23T03:55:30.050Z,20.40
2017-08-23T03:57:57.546Z,20.40
2017-08-23T04:00:25.037Z,20.40
2017-08-23T04:02:52.552Z,20.80
2017-08-23T04:05:20.048Z,20.60
2017-08-23T04:07:47.538Z,20.50
2017-08-23T04:10:15.041Z,20.30
2017-08-23T04:12:42.531Z,20.30
2017-08-23T04:15:10.019Z,20.20
2017-08-23T04:17:37.517Z,20.40
2017-08-23T04:20:04.998Z,20.40
2017-08-23T04:22:32.478Z,20.30
2017-08-23T04:24:59.972Z,20.30
2017-08-23T04:27:27.453Z,20.50
2017-08-23T04:29:54.939Z,20.50
2017-08-23T04:32:22.456Z,20.30
2017-08-23T04:34:49.980Z,20.30
2017-08-23T04:37:17.489Z,20.50
2017-08-23T04:39:44.990Z,20.30
2017-08-23T04:42:12.460Z,20.70
2017-08-23T04:44:39.944Z,20.80
2017-08-23T04:47:07.441Z,20.70
2017-08-23T04:49:34.917Z,20.60
2017-08-23T04:52:02.398Z,20.60
2017-08-23T04:54:29.911Z,20.50
2017-08-23T04:56:57.404Z,20.60
2017-08-23T04:59:24.907Z,20.60
2017-08-23T05:01:52.431Z,20.50
2017-08-23T05:04:19.910Z,20.50
2017-08-23T05:06:47.394Z,20.30
2017-08-23T05:09:14.908Z,20.50
2017-08-23T05:11:43.279Z,20.60
2017-08-23T05:14:10.754Z,20.60
2017-08-23T05:16:38.260Z,20.40
2017-08-23T05:19:05.746Z,20.90
2017-08-23T05:21:33.233Z,21.40
2017-08-23T05:24:00.745Z,21.30
2017-08-23T05:26:28.240Z,21.10
2017-08-23T05:28:55.736Z,20.90
2017-08-23T05:31:23.246Z,20.80
2017-08-23T05:33:50.731Z,20.70
2017-08-23T05:36:18.222Z,20.60
2017-08-23T05:38:45.735Z,20.70
2017-08-23T05:41:13.221Z,20.60
2017-08-23T05:43:40.713Z,20.60
2017-08-23T05:46:08.209Z,21.10
2017-08-23T05:48:35.696Z,21.20
2017-08-23T05:51:03.186Z,21.10
2017-08-23T05:53:30.727Z,21.20
2017-08-23T05:55:58.206Z,21.40
2017-08-23T05:58:25.702Z,20.70
2017-08-23T06:00:53.225Z,21.00
2017-08-23T06:03:20.702Z,21.00
2017-08-23T06:05:48.193Z,21.30
2017-08-23T06:08:15.693Z,21.50
2017-08-23T06:10:43.166Z,21.00
2017-08-23T06:13:10.648Z,21.10
2017-08-23T06:15:38.173Z,21.30
2017-08-23T06:18:05.666Z,21.40
2017-08-23T06:20:33.154Z,21.40
2017-08-23T06:23:00.678Z,21.30
2017-08-23T06:25:28.168Z,21.60
2017-08-23T06:27:55.649Z,21.40
2017-08-23T06:30:23.163Z,21.40
2017-08-23T06:32:50.653Z,21.30
2017-08-23T06:35:18.138Z,21.20
2017-08-23T06:37:45.665Z,21.40
2017-08-23T06:40:13.147Z,21.70
2017-08-23T06:42:40.630Z,21.80
2017-08-23T06:45:08.143Z,21.70
2017-08-23T06:47:35.635Z,21.40
2017-08-23T06:50:03.127Z,21.50
2017-08-23T06:52:30.644Z,21.60
2017-08-23T06:54:58.121Z,21.40
2017-08-23T06:57:25.638Z,21.40
2017-08-23T06:59:53.158Z,21.60
2017-08-23T07:02:20.640Z,22.10
2017-08-23T07:04:48.123Z,22.30
2017-08-23T07:07:15.643Z,22.90
2017-08-23T07:09:43.133Z,22.60
2017-08-23T07:12:10.629Z,22.40
2017-08-23T07:14:38.153Z,22.30
2017-08-23T07:17:05.638Z,22.70
2017-08-23T07:19:33.125Z,22.70
2017-08-23T07:22:00.636Z,22.70
2017-08-23T07:24:28.110Z,22.90
2017-08-23T07:26:55.610Z,22.80
2017-08-23T07:29:23.120Z,22.80
2017-08-23T07:31:50.608Z,22.90
2017-08-23T07:34:18.108Z,22.80
2017-08-23T07:36:45.606Z,23.00
2017-08-23T07:39:13.121Z,23.00
2017-08-23T07:41:40.601Z,23.10
2017-08-23T07:44:08.219Z,23.50
2017-08-23T07:46:35.693Z,23.20
2017-08-23T07:49:03.176Z,23.10
2017-08-23T07:51:30.683Z,23.10
2017-08-23T07:53:58.165Z,23.10
2017-08-23T07:56:25.717Z,23.10
2017-08-23T07:58:53.273Z,23.10
2017-08-23T08:01:20.745Z,23.20
2017-08-23T08:03:48.227Z,23.20
2017-08-23T08:06:15.749Z,23.40
2017-08-23T08:08:43.238Z,23.40
2017-08-23T08:11:10.775Z,23.70
2017-08-23T08:13:38.318Z,23.70
2017-08-23T08:16:06.554Z,23.70
2017-08-23T08:18:34.043Z,23.70
2017-08-23T08:21:01.546Z,23.80
2017-08-23T08:23:29.026Z,24.00
2017-08-23T08:25:56.509Z,24.00
2017-08-23T08:28:24.024Z,24.10
2017-08-23T08:30:51.507Z,24.00
2017-08-23T08:33:18.999Z,24.00
2017-08-23T08:35:46.506Z,24.30
2017-08-23T08:38:14.007Z,24.30
2017-08-23T08:40:41.493Z,24.20
2017-08-23T08:43:09.058Z,24.20
2017-08-23T08:45:36.564Z,24.10
2017-08-23T08:48:04.056Z,24.20
2017-08-23T08:50:31.565Z,24.30
2017-08-23T08:52:59.049Z,24.30
2017-08-23T08:55:26.549Z,24.30
2017-08-23T08:57:54.059Z,24.30
2017-08-23T09:00:21.563Z,24.40
2017-08-23T09:02:49.055Z,24.40
2017-08-23T09:05:16.557Z,24.40
2017-08-23T09:07:44.039Z,24.40
2017-08-23T09:10:11.528Z,24.60
2017-08-23T09:12:39.047Z,24.70
2017-08-23T09:15:06.630Z,24.60
2017-08-23T09:17:34.115Z,24.60
2017-08-23T09:20:01.631Z,24.60
2017-08-23T09:22:29.101Z,24.80
2017-08-23T09:24:56.585Z,25.00
2017-08-23T09:27:24.098Z,25.00
2017-08-23T09:29:51.577Z,25.00
2017-08-23T09:32:19.071Z,24.90
2017-08-23T09:34:46.583Z,24.80
2017-08-23T09:37:14.061Z,25.00
2017-08-23T09:39:41.529Z,24.80
2017-08-23T09:42:09.081Z,25.10
2017-08-23T09:44:36.557Z,25.50
2017-08-23T09:47:04.034Z,25.70
2017-08-23T09:49:31.541Z,25.80
2017-08-23T09:51:59.023Z,25.50
2017-08-23T09:54:26.506Z,25.30
2017-08-23T09:56:54.011Z,25.20
2017-08-23T09:59:21.477Z,25.10
2017-08-23T10:01:48.967Z,25.20
2017-08-23T10:04:16.482Z,25.20
2017-08-23T10:06:43.968Z,25.50
2017-08-23T10:09:11.455Z,25.60
2017-08-23T10:11:38.960Z,25.90
2017-08-23T10:14:06.549Z,26.40
2017-08-23T10:16:34.040Z,26.40
2017-08-23T10:19:01.567Z,26.40
2017-08-23T10:21:29.045Z,27.30
2017-08-23T10:23:56.518Z,27.30
2017-08-23T10:26:24.031Z,27.30
2017-08-23T10:28:51.510Z,27.20
2017-08-23T10:31:18.986Z,27.00
2017-08-23T10:33:46.492Z,27.40
2017-08-23T10:36:13.981Z,27.40
2017-08-23T10:38:41.458Z,26.80
2017-08-23T10:41:08.969Z,27.10
2017-08-23T10:43:36.463Z,26.90
2017-08-23T10:46:03.937Z,26.80
2017-08-23T10:48:31.444Z,27.20
2017-08-23T10:50:58.934Z,26.70
2017-08-23T10:53:26.440Z,26.80
2017-08-23T10:55:53.970Z,27.20
2017-08-23T10:58:21.451Z,27.40
2017-08-23T11:00:48.922Z,27.00
2017-08-23T11:03:16.435Z,27.80
2017-08-23T11:05:43.934Z,27.30
2017-08-23T11:08:11.448Z,27.10
2017-08-23T11:10:38.955Z,26.90
2017-08-23T11:13:06.429Z,27.40
2017-08-23T11:15:33.915Z,27.90
2017-08-23T11:18:01.423Z,27.30
2017-08-23T11:20:28.903Z,26.80
2017-08-23T11:22:56.396Z,26.80
2017-08-23T11:25:23.914Z,26.70
2017-08-23T11:27:51.399Z,27.20
2017-08-23T11:30:18.874Z,27.40
2017-08-23T11:32:46.377Z,27.20
2017-08-23T11:35:13.859Z,27.40
2017-08-23T11:37:41.367Z,27.80
2017-08-23T11:40:08.869Z,27.40
2017-08-23T11:42:36.359Z,27.50
2017-08-23T11:45:03.854Z,27.90
2017-08-23T11:47:31.371Z,28.20
2017-08-23T11:49:58.853Z,27.90
2017-08-23T11:52:26.335Z,27.40
2017-08-23T11:54:53.881Z,26.50
2017-08-23T11:57:21.358Z,26.10
2017-08-23T11:59:48.845Z,27.10
2017-08-23T12:02:16.401Z,26.80
2017-08-23T12:04:44.707Z,26.80
2017-08-23T12:07:12.195Z,26.80
2017-08-23T12:09:39.689Z,26.70
2017-08-23T12:12:07.170Z,26.80
2017-08-23T12:14:34.656Z,26.80
2017-08-23T12:17:02.156Z,26.40
2017-08-23T12:19:29.634Z,26.40
2017-08-23T12:21:57.129Z,26.90
2017-08-23T12:24:24.637Z,26.90
2017-08-23T12:26:52.123Z,26.40
2017-08-23T12:29:19.607Z,26.20
2017-08-23T12:31:47.140Z,26.50
2017-08-23T12:34:14.621Z,26.40
2017-08-23T12:36:42.111Z,26.20
2017-08-23T12:39:09.618Z,26.40
2017-08-23T12:41:37.089Z,26.10
2017-08-23T12:44:04.568Z,26.10
2017-08-23T12:46:32.081Z,26.10
2017-08-23T12:48:59.591Z,26.20
2017-08-23T12:51:27.083Z,26.30
2017-08-23T12:53:54.590Z,26.80
2017-08-23T12:56:22.087Z,26.50
2017-08-23T12:58:49.566Z,26.40
2017-08-23T13:01:17.070Z,26.30
2017-08-23T13:03:44.544Z,26.30
2017-08-23T13:06:12.040Z,27.10
2017-08-23T13:08:39.551Z,27.00
2017-08-23T13:11:07.047Z,27.10
2017-08-23T13:13:34.525Z,26.40
2017-08-23T13:16:02.025Z,26.90
2017-08-23T13:18:29.514Z,27.00
2017-08-23T13:20:56.999Z,26.40
2017-08-23T13:23:24.510Z,27.30
2017-08-23T13:25:51.991Z,27.80
2017-08-23T13:28:19.475Z,27.70
2017-08-23T13:30:46.976Z,26.90
2017-08-23T13:33:14.471Z,27.30
2017-08-23T13:35:41.964Z,27.50
2017-08-23T13:38:09.465Z,28.00
2017-08-23T13:40:36.946Z,28.00
2017-08-23T13:43:04.417Z,27.50
2017-08-23T13:45:31.911Z,27.10
2017-08-23T13:47:59.407Z,27.80
2017-08-23T13:50:26.888Z,27.00
2017-08-23T13:52:54.402Z,27.90
2017-08-23T13:55:21.929Z,27.80
2017-08-23T13:57:49.413Z,28.20
2017-08-23T14:00:16.918Z,27.70
2017-08-23T14:02:44.715Z,27.90
2017-08-23T14:05:12.202Z,28.30
2017-08-23T14:07:39.704Z,28.40
2017-08-23T14:10:07.185Z,28.20
2017-08-23T14:12:34.672Z,28.00
2017-08-23T14:15:02.182Z,28.60
2017-08-23T14:17:29.665Z,28.30
2017-08-23T14:19:57.141Z,28.50
2017-08-23T14:22:24.650Z,28.00
2017-08-23T14:24:52.130Z,28.10
2017-08-23T14:27:19.616Z,28.50
2017-08-23T14:29:47.221Z,28.60
2017-08-23T14:32:14.756Z,28.50
2017-08-23T14:34:42.205Z,27.90
2017-08-23T14:37:09.731Z,27.60
2017-08-23T14:39:37.215Z,28.00
2017-08-23T14:42:04.689Z,28.10
2017-08-23T14:44:32.189Z,28.40
2017-08-23T14:46:59.671Z,27.90
2017-08-23T14:49:27.141Z,28.30
2017-08-23T14:51:54.637Z,28.60
2017-08-23T14:54:22.113Z,28.30
2017-08-23T14:56:49.595Z,28.00
2017-08-23T14:59:17.103Z,28.00
2017-08-23T15:01:44.587Z,27.90
2017-08-23T15:04:12.084Z,27.50
2017-08-23T15:06:39.593Z,28.20
2017-08-23T15:09:07.073Z,28.90
2017-08-23T15:11:34.571Z,29.20
2017-08-23T15:14:02.078Z,28.90
2017-08-23T15:16:29.563Z,28.90
2017-08-23T15:18:57.047Z,28.70
2017-08-23T15:21:24.560Z,28.20
2017-08-23T15:23:52.051Z,28.80
2017-08-23T15:26:19.537Z,28.60
2017-08-23T15:28:47.075Z,28.80
2017-08-23T15:31:14.558Z,28.70
2017-08-23T15:33:42.046Z,28.80
2017-08-23T15:36:09.564Z,28.80
2017-08-23T15:38:37.179Z,28.30
2017-08-23T15:41:04.663Z,28.20
2017-08-23T15:43:32.174Z,28.60
2017-08-23T15:45:59.649Z,28.70
2017-08-23T15:48:27.141Z,28.80
2017-08-23T15:50:54.637Z,28.70
2017-08-23T15:53:22.126Z,28.70
2017-08-23T15:55:49.612Z,28.50
2017-08-23T15:58:17.117Z,28.70
2017-08-23T16:00:44.611Z,28.50
2017-08-23T16:03:12.095Z,28.60
2017-08-23T16:05:39.608Z,28.20
2017-08-23T16:08:07.094Z,28.10
2017-08-23T16:10:34.579Z,28.20
2017-08-23T16:13:02.090Z,28.10
2017-08-23T16:15:29.570Z,28.00
2017-08-23T16:17:57.049Z,28.20
2017-08-23T16:20:24.583Z,28.40
2017-08-23T16:22:52.081Z,28.20
2017-08-23T16:25:19.564Z,28.20
2017-08-23T16:27:47.065Z,28.10
2017-08-23T16:30:14.555Z,27.70
2017-08-23T16:32:42.034Z,28.00
2017-08-23T16:35:09.542Z,28.30
2017-08-23T16:37:37.016Z,27.80
2017-08-23T16:40:04.515Z,28.10
2017-08-23T16:42:32.017Z,28.10
2017-08-23T16:44:59.506Z,28.00
2017-08-23T16:47:26.991Z,28.20
2017-08-23T16:49:54.498Z,28.20
2017-08-23T16:52:21.974Z,28.10
2017-08-23T16:54:49.445Z,28.00
2017-08-23T16:57:16.954Z,28.00
2017-08-23T16:59:44.446Z,27.90
2017-08-23T17:02:11.972Z,27.90
2017-08-23T17:04:39.480Z,27.90
2017-08-23T17:07:06.970Z,27.70
2017-08-23T17:09:34.460Z,27.80
2017-08-23T17:12:01.957Z,27.70
2017-08-23T17:14:29.439Z,27.90
2017-08-23T17:16:56.923Z,27.60
2017-08-23T17:19:24.435Z,27.60
2017-08-23T17:21:51.916Z,27.50
2017-08-23T17:24:19.394Z,27.60
2017-08-23T17:26:46.905Z,27.60
2017-08-23T17:29:14.390Z,27.40
2017-08-23T17:31:41.870Z,27.20
2017-08-23T17:34:09.413Z,27.20
2017-08-23T17:36:36.887Z,27.20
2017-08-23T17:39:04.368Z,27.20
2017-08-23T17:41:31.873Z,27.20
2017-08-23T17:43:59.358Z,27.10
2017-08-23T17:46:26.843Z,27.10
2017-08-23T17:48:54.354Z,27.00
2017-08-23T17:51:21.837Z,27.00
2017-08-23T17:53:49.309Z,27.00
2017-08-23T17:56:16.805Z,26.90
2017-08-23T17:58:44.291Z,26.90
2017-08-23T18:01:11.771Z,26.90
2017-08-23T18:03:39.283Z,26.80
2017-08-23T18:06:06.758Z,26.80
2017-08-23T18:08:34.244Z,26.70
2017-08-23T18:11:01.763Z,26.60
2017-08-23T18:13:29.257Z,26.60
2017-08-23T18:15:56.738Z,26.60
2017-08-23T18:18:24.241Z,26.50
2017-08-23T18:20:51.733Z,26.40
2017-08-23T18:23:19.223Z,26.40
2017-08-23T18:25:46.728Z,26.40
2017-08-23T18:28:14.211Z,26.40
2017-08-23T18:30:41.705Z,26.40
2017-08-23T18:33:09.223Z,26.30
2017-08-23T18:35:36.717Z,26.40
2017-08-23T18:38:04.239Z,26.30
2017-08-23T18:40:31.750Z,26.30
2017-08-23T18:42:59.227Z,26.30
2017-08-23T18:45:26.711Z,26.30
2017-08-23T18:47:54.220Z,26.30
2017-08-23T18:50:21.716Z,26.30
2017-08-23T18:52:49.197Z,26.20
2017-08-23T18:55:16.701Z,26.10
2017-08-23T18:57:44.194Z,26.10
2017-08-23T19:00:11.683Z,26.10
2017-08-23T19:02:39.193Z,26.10
2017-08-23T19:05:06.662Z,26.10
2017-08-23T19:07:34.587Z,26.00
2017-08-23T19:10:02.380Z,25.90
2017-08-23T19:12:30.308Z,26.00
2017-08-23T19:14:58.109Z,26.00
2017-08-23T19:17:25.742Z,25.90
2017-08-23T19:19:53.627Z,26.00
2017-08-23T19:22:22.117Z,26.00
2017-08-23T19:24:49.650Z,25.90
2017-08-23T19:27:17.695Z,25.90
2017-08-23T19:29:45.355Z,25.90
2017-08-23T19:32:13.095Z,25.80
2017-08-23T19:34:40.850Z,25.80
2017-08-23T19:37:08.613Z,25.70
2017-08-23T19:39:37.060Z,25.70
2017-08-23T19:42:04.758Z,25.80
2017-08-23T19:44:32.478Z,25.80
2017-08-23T19:47:00.430Z,25.80
2017-08-23T19:49:28.872Z,25.70
2017-08-23T19:51:56.915Z,25.60
2017-08-23T19:54:24.561Z,25.50
2017-08-23T19:56:52.944Z,25.40
2017-08-23T19:59:20.741Z,25.40
2017-08-23T20:01:49.159Z,25.40
2017-08-23T20:04:17.373Z,25.30
2017-08-23T20:06:45.474Z,25.40
2017-08-23T20:09:13.283Z,25.40
2017-08-23T20:11:41.393Z,25.40
2017-08-23T20:14:08.937Z,25.40
2017-08-23T20:16:37.200Z,25.40
2017-08-23T20:19:05.643Z,25.40
2017-08-23T20:21:33.290Z,25.40
2017-08-23T20:24:01.775Z,25.40
2017-08-23T20:26:29.962Z,25.40
2017-08-23T20:28:57.476Z,25.40
2017-08-23T20:31:25.872Z,25.40
2017-08-23T20:33:53.545Z,25.40
2017-08-23T20:36:21.214Z,25.40
2017-08-23T20:38:49.200Z,25.40
2017-08-23T20:41:17.212Z,25.40
2017-08-23T20:43:44.832Z,25.30
2017-08-23T20:46:13.104Z,25.30
2017-08-23T20:48:41.043Z,25.20
2017-08-23T20:51:09.346Z,25.10
2017-08-23T20:53:37.441Z,25.10
2017-08-23T20:56:05.605Z,25.20
2017-08-23T20:58:33.677Z,25.20
2017-08-23T21:01:01.705Z,25.20
2017-08-23T21:03:29.194Z,25.20
2017-08-23T21:05:56.673Z,25.20
2017-08-23T21:08:24.181Z,25.20
2017-08-23T21:10:51.680Z,25.10
2017-08-23T21:13:19.161Z,25.10
2017-08-23T21:15:46.669Z,25.10
2017-08-23T21:18:14.154Z,25.10
2017-08-23T21:20:41.644Z,25.10
2017-08-23T21:23:09.147Z,25.00
2017-08-23T21:25:36.628Z,25.00
2017-08-23T21:28:04.108Z,25.00
2017-08-23T21:30:31.615Z,25.00
2017-08-23T21:32:59.099Z,24.80
2017-08-23T21:35:26.574Z,24.80
2017-08-23T21:37:54.099Z,25.00
2017-08-23T21:40:21.582Z,25.00
2017-08-23T21:42:49.050Z,24.90
2017-08-23T21:45:16.554Z,24.90
2017-08-23T21:47:44.042Z,24.80
2017-08-23T21:50:11.538Z,24.80
2017-08-23T21:52:39.045Z,24.70
2017-08-23T21:55:06.518Z,24.60
2017-08-23T21:57:34.611Z,24.70
2017-08-23T22:00:02.113Z,24.80
2017-08-23T22:02:29.580Z,24.80
2017-08-23T22:04:57.054Z,24.70
2017-08-23T22:07:24.565Z,24.60
2017-08-23T22:09:52.045Z,24.70
2017-08-23T22:12:19.533Z,24.50
2017-08-23T22:14:47.054Z,24.40
2017-08-23T22:17:14.534Z,24.30
2017-08-23T22:19:42.016Z,24.40
2017-08-23T22:22:09.531Z,24.50
2017-08-23T22:24:37.015Z,24.70
2017-08-23T22:27:04.495Z,24.50
2017-08-23T22:29:32.003Z,24.80
2017-08-23T22:31:59.485Z,24.70
2017-08-23T22:34:26.973Z,24.80
2017-08-23T22:36:54.489Z,24.70
2017-08-23T22:39:21.970Z,24.40
2017-08-23T22:41:49.455Z,24.40
2017-08-23T22:44:16.956Z,24.40
2017-08-23T22:46:44.425Z,24.30
2017-08-23T22:49:11.906Z,24.40
2017-08-23T22:51:39.412Z,24.20
2017-08-23T22:54:06.908Z,24.20
2017-08-23T22:56:34.394Z,24.30
2017-08-23T22:59:01.893Z,24.30
2017-08-23T23:01:29.365Z,24.30
2017-08-23T23:03:56.833Z,24.30
2017-08-23T23:06:24.347Z,24.20
2017-08-23T23:08:51.830Z,24.00
2017-08-23T23:11:19.312Z,24.00
2017-08-23T23:13:46.838Z,23.80
2017-08-23T23:16:14.324Z,23.80
2017-08-23T23:18:41.810Z,23.80
2017-08-23T23:21:09.327Z,23.80
2017-08-23T23:23:36.806Z,23.70
2017-08-23T23:26:04.277Z,23.70
2017-08-23T23:28:31.791Z,23.70
2017-08-23T23:30:59.283Z,23.70
2017-08-23T23:33:26.757Z,23.40
2017-08-23T23:35:54.254Z,23.50
2017-08-23T23:38:21.737Z,23.70
2017-08-23T23:40:49.227Z,23.70
2017-08-23T23:43:16.722Z,23.40
2017-08-23T23:45:44.210Z,23.30
2017-08-23T23:48:11.690Z,23.10
2017-08-23T23:50:39.192Z,23.30
2017-08-23T23:53:06.691Z,23.50
2017-08-23T23:55:34.176Z,23.40
2017-08-23T23:58:01.687Z,23.30
